Portada
METAR-TAF:

METAR-TAF

Aeropuertos :

Bou Saâda, Argelia

latitud: 35-20N, longitud: 004-12E, altitud: 461 m

Observación

El informe se hizo hace 24 minutos, a las 12:00 UTC
Viento 4 kt del norte
Temperatura 22°C
Humedad 83%
Presión 1015 hPa
Visibilidad: 6000 m
Nubes dispersas a una altura de 1000 ft
Nubes dispersas a una altura de 3000 ft

METAR: DAAD 261200Z 36004KT 6000 SCT010 SCT030 22/19 Q1015

Hora: 13:24 (12:24 UTC)

Pronóstico

El informe se hizo hace 1 hora y 24 minutos, a las 11:00 UTC
Pronóstico válido del 26 a las 12 UTC al 26 a las 21 UTC
Viento 2 kt con dirección variable
Visibilidad: 6000 m
Nubes dispersas a una altura de 1000 ft
Nubes dispersas a una altura de 3000 ft

TAF: DAAD 261100Z 2612/2621 VRB02KT 6000 SCT010 SCT030

Observaciones y pronósticos meteorológicos de más de 4000 aeropuertos (mensajes METAR y TAF).

Los puntos amarillos y rojos representan las estaciones disponibles.

Ponga el ratón en el punto deseado para ver el nombre de la estación.

Haga clic para ver las observaciones y los pronósticos meteorológicos.

Para cambiar el mapa : haga clic en los botones verdes con una cruz de color negro para hacer un zoom, en el botón verde con un guión para alejar o en las flechas verdes para mapas adyacentes.


METAR-TAF: